Batavia, Ohio
Current Conditions -  °F | °C
As of 9:53 PM on Saturday 20 Dec 2014 (Local Time) from KLUK Reporting Station
Overcast Overcast  
Wind Chill: 31°   Ceiling: 2600
Heat Index: 31°   Visibility: 7mi
Dew Point: 27°   Wind: 0mph
Humidity: 85%   Direction: NA
Pressure: 30.32"   Gusts: NA
Location:  39.08°N, 84.18°W
Report Text: KLUK 210253Z 00000KT 7SM OVC026 M01/M03 A3032 RMK AO2 SLP271 T10061028 58000
Loading
Personal Weather Stations






























Interactive Weather Map New forecast layout! Learn more

10-Day Weather Forecast

Advertisements
Track Severe Weather on mobile